createdAt,value
2023-05-16T00:02:06.387Z,9.90
2023-05-16T00:04:34.131Z,9.30
2023-05-16T00:07:01.374Z,9.50
2023-05-16T00:09:28.438Z,9.90
2023-05-16T00:11:56.331Z,10.30
2023-05-16T00:14:26.292Z,9.70
2023-05-16T00:16:54.863Z,11.37
2023-05-16T00:19:22.055Z,10.40
2023-05-16T00:21:49.268Z,10.43
2023-05-16T00:24:16.890Z,9.97
2023-05-16T00:26:44.207Z,10.40
2023-05-16T00:29:11.282Z,9.50
2023-05-16T00:31:38.425Z,10.40
2023-05-16T00:34:05.541Z,11.90
2023-05-16T00:36:33.064Z,12.07
2023-05-16T00:39:00.134Z,11.03
2023-05-16T00:41:27.846Z,10.60
2023-05-16T00:43:54.958Z,10.57
2023-05-16T00:46:22.062Z,11.23
2023-05-16T00:48:49.136Z,11.30
2023-05-16T00:51:17.818Z,11.43
2023-05-16T00:53:45.144Z,10.27
2023-05-16T00:56:12.451Z,10.60
2023-05-16T00:58:39.656Z,10.77
2023-05-16T01:01:08.144Z,10.57
2023-05-16T01:03:35.511Z,11.33
2023-05-16T01:06:02.786Z,10.80
2023-05-16T01:08:29.809Z,11.50
2023-05-16T01:11:28.704Z,11.27
2023-05-16T01:14:15.110Z,11.10
2023-05-16T01:16:58.470Z,10.60
2023-05-16T01:19:46.593Z,10.53
2023-05-16T01:22:33.421Z,11.37
2023-05-16T01:25:16.542Z,11.20
2023-05-16T01:27:45.934Z,10.73
2023-05-16T01:30:20.217Z,12.17
2023-05-16T01:32:47.413Z,11.70
2023-05-16T01:35:16.752Z,11.77
2023-05-16T01:38:29.428Z,11.87
2023-05-16T01:41:17.411Z,12.90
2023-05-16T01:43:49.119Z,13.07
2023-05-16T01:46:26.353Z,12.67
2023-05-16T01:49:00.550Z,10.80
2023-05-16T01:51:33.534Z,12.27
2023-05-16T01:54:06.785Z,12.10
2023-05-16T01:56:34.603Z,13.10
2023-05-16T01:59:02.382Z,12.80
2023-05-16T02:01:32.775Z,12.53
2023-05-16T02:03:59.927Z,14.00
2023-05-16T02:06:27.537Z,12.10
2023-05-16T02:08:56.512Z,14.57
2023-05-16T02:11:23.833Z,13.50
2023-05-16T02:13:51.830Z,13.93
2023-05-16T02:16:18.913Z,14.23
2023-05-16T02:18:46.155Z,12.80
2023-05-16T02:21:13.504Z,14.63
2023-05-16T02:23:40.666Z,13.90
2023-05-16T02:26:07.783Z,13.67
2023-05-16T02:28:34.937Z,14.33
2023-05-16T02:31:02.307Z,13.23
2023-05-16T02:33:30.871Z,15.00
2023-05-16T02:35:58.057Z,15.07
2023-05-16T02:38:26.431Z,14.23
2023-05-16T02:40:55.975Z,15.80
2023-05-16T02:43:23.061Z,14.30
2023-05-16T02:45:50.288Z,13.97
2023-05-16T02:48:17.410Z,15.77
2023-05-16T02:50:44.491Z,14.07
2023-05-16T02:53:11.812Z,14.60
2023-05-16T02:55:39.008Z,14.87
2023-05-16T02:58:06.203Z,14.13
2023-05-16T03:00:33.645Z,14.07
2023-05-16T03:03:00.812Z,15.07
2023-05-16T03:05:28.926Z,15.00
2023-05-16T03:07:56.202Z,14.63
2023-05-16T03:10:23.389Z,14.13
2023-05-16T03:12:50.927Z,14.70
2023-05-16T03:15:18.040Z,15.00
2023-05-16T03:17:45.107Z,16.00
2023-05-16T03:20:12.749Z,14.60
2023-05-16T03:22:40.619Z,15.53
2023-05-16T03:25:08.202Z,16.30
2023-05-16T03:27:35.352Z,16.70
2023-05-16T03:30:02.548Z,15.20
2023-05-16T03:32:29.764Z,14.50
2023-05-16T03:34:56.978Z,15.70
2023-05-16T03:37:24.152Z,16.20
2023-05-16T03:39:51.410Z,16.23
2023-05-16T03:42:18.581Z,16.50
2023-05-16T03:44:46.152Z,16.50
2023-05-16T03:47:13.308Z,16.37
2023-05-16T03:49:41.091Z,16.17
2023-05-16T03:52:08.220Z,15.10
2023-05-16T03:54:35.336Z,15.13
2023-05-16T03:57:02.392Z,16.00
2023-05-16T03:59:29.620Z,15.60
2023-05-16T04:01:56.800Z,15.43
2023-05-16T04:04:23.927Z,15.30
2023-05-16T04:06:51.477Z,15.50
2023-05-16T04:09:18.863Z,15.30
2023-05-16T04:11:46.412Z,15.47
2023-05-16T04:14:13.467Z,16.33
2023-05-16T04:16:40.771Z,15.10
2023-05-16T04:19:08.086Z,16.00
2023-05-16T04:21:36.483Z,14.63
2023-05-16T04:24:03.757Z,15.73
2023-05-16T04:26:31.916Z,16.47
2023-05-16T04:29:00.202Z,17.10
2023-05-16T04:31:27.555Z,17.53
2023-05-16T04:33:55.038Z,16.00
2023-05-16T04:36:22.194Z,15.80
2023-05-16T04:38:49.245Z,16.13
2023-05-16T04:41:16.699Z,15.43
2023-05-16T04:43:44.737Z,15.40
2023-05-16T04:46:12.487Z,15.63
2023-05-16T04:48:39.598Z,15.93
2023-05-16T04:51:06.811Z,15.80
2023-05-16T04:53:34.146Z,15.30
2023-05-16T04:56:01.695Z,15.90
2023-05-16T04:58:28.798Z,16.63
2023-05-16T05:00:56.012Z,15.30
2023-05-16T05:03:23.436Z,16.10
2023-05-16T05:05:50.923Z,16.67
2023-05-16T05:08:19.151Z,16.70
2023-05-16T05:10:46.412Z,17.10
2023-05-16T05:13:13.781Z,17.77
2023-05-16T05:15:41.212Z,17.33
2023-05-16T05:18:08.577Z,19.10
2023-05-16T05:20:36.488Z,19.60
2023-05-16T05:23:03.688Z,18.93
2023-05-16T05:25:31.011Z,19.20
2023-05-16T05:27:58.231Z,19.10
2023-05-16T05:30:25.391Z,20.13
2023-05-16T05:32:53.539Z,21.97
2023-05-16T05:35:21.130Z,22.20
2023-05-16T05:37:48.838Z,20.00
2023-05-16T05:40:16.269Z,24.27
2023-05-16T05:42:46.195Z,23.23
2023-05-16T05:45:15.489Z,24.17
2023-05-16T05:47:43.573Z,26.07
2023-05-16T05:50:14.755Z,23.33
2023-05-16T05:52:42.049Z,24.70
2023-05-16T05:55:09.750Z,25.17
2023-05-16T05:57:37.034Z,24.40
2023-05-16T06:00:05.351Z,23.73
2023-05-16T06:02:35.183Z,25.17
2023-05-16T06:05:02.518Z,24.50
2023-05-16T06:07:29.696Z,23.60
2023-05-16T06:09:56.784Z,23.70
2023-05-16T06:12:23.862Z,26.13
2023-05-16T06:14:50.949Z,26.70
2023-05-16T06:17:18.157Z,26.27
2023-05-16T06:19:45.333Z,27.47
2023-05-16T06:22:12.584Z,29.83
2023-05-16T06:24:39.622Z,29.37
2023-05-16T06:27:07.379Z,28.20
2023-05-16T06:29:34.466Z,28.80
2023-05-16T06:32:01.769Z,32.20
2023-05-16T06:34:28.920Z,35.07
2023-05-16T06:36:56.256Z,36.73
2023-05-16T06:39:23.326Z,33.97
2023-05-16T06:41:50.662Z,35.13
2023-05-16T06:44:17.909Z,37.23
2023-05-16T06:46:45.291Z,37.97
2023-05-16T06:49:12.402Z,35.10
2023-05-16T06:51:40.554Z,33.20
2023-05-16T06:54:07.678Z,32.83
2023-05-16T06:56:35.043Z,33.40
2023-05-16T06:59:02.299Z,31.80
2023-05-16T07:01:29.545Z,29.57
2023-05-16T07:03:56.858Z,28.90
2023-05-16T07:06:24.081Z,25.27
2023-05-16T07:08:51.482Z,25.27
2023-05-16T07:11:18.550Z,25.60
2023-05-16T07:13:45.628Z,23.67
2023-05-16T07:16:13.425Z,22.60
2023-05-16T07:18:40.653Z,22.50
2023-05-16T07:21:08.363Z,21.70
2023-05-16T07:23:35.547Z,21.47
2023-05-16T07:26:03.472Z,20.23
2023-05-16T07:28:30.594Z,18.13
2023-05-16T07:30:58.889Z,18.43
2023-05-16T07:33:27.453Z,17.43
2023-05-16T07:36:07.816Z,18.33
2023-05-16T07:38:42.365Z,18.37
2023-05-16T07:41:09.517Z,19.53
2023-05-16T07:43:36.985Z,19.00
2023-05-16T07:46:04.258Z,19.87
2023-05-16T07:48:31.511Z,20.73
2023-05-16T07:50:58.717Z,19.13
2023-05-16T07:53:26.155Z,19.63
2023-05-16T07:55:53.394Z,17.07
2023-05-16T07:58:20.624Z,17.30
2023-05-16T08:00:47.748Z,17.30
2023-05-16T08:03:15.079Z,18.23
2023-05-16T08:05:42.683Z,16.20
2023-05-16T08:08:09.842Z,15.47
2023-05-16T08:10:36.942Z,16.00
2023-05-16T08:13:04.507Z,15.20
2023-05-16T08:15:31.620Z,14.50
2023-05-16T08:17:59.410Z,14.97
2023-05-16T08:20:26.983Z,14.43
2023-05-16T08:22:55.230Z,14.27
2023-05-16T08:25:22.477Z,15.00
2023-05-16T08:27:51.522Z,14.50
2023-05-16T08:30:19.256Z,14.23
2023-05-16T08:32:46.558Z,13.53
2023-05-16T08:35:13.791Z,14.33
2023-05-16T08:37:40.912Z,14.00
2023-05-16T08:40:11.195Z,14.90
2023-05-16T08:42:38.541Z,13.97
2023-05-16T08:45:07.681Z,13.30
2023-05-16T08:47:36.901Z,13.27
2023-05-16T08:50:04.662Z,13.47
2023-05-16T08:52:33.524Z,12.70
2023-05-16T08:55:11.085Z,11.13
2023-05-16T08:57:40.151Z,12.47
2023-05-16T09:00:12.046Z,12.33
2023-05-16T09:02:42.001Z,13.03
2023-05-16T09:05:13.435Z,12.17
2023-05-16T09:07:42.203Z,12.10
2023-05-16T09:10:10.653Z,12.63
2023-05-16T09:12:40.111Z,12.70
2023-05-16T09:15:09.657Z,12.00
2023-05-16T09:17:44.587Z,10.83
2023-05-16T09:20:15.622Z,11.60
2023-05-16T09:22:57.529Z,12.03
2023-05-16T09:25:30.824Z,12.70
2023-05-16T09:28:01.876Z,12.60
2023-05-16T09:30:33.955Z,11.80
2023-05-16T09:33:01.937Z,12.10
2023-05-16T09:37:59.705Z,12.17
2023-05-16T09:40:29.725Z,11.97
2023-05-16T09:43:05.939Z,12.63
2023-05-16T09:45:34.781Z,10.60
2023-05-16T09:48:08.186Z,11.63
2023-05-16T09:50:37.341Z,12.10
2023-05-16T09:53:05.650Z,13.07
2023-05-16T09:55:33.837Z,11.27
2023-05-16T09:58:01.352Z,11.20
2023-05-16T10:00:33.796Z,12.03
2023-05-16T10:03:05.776Z,10.53
2023-05-16T10:05:34.966Z,10.50
2023-05-16T10:08:04.603Z,11.63
2023-05-16T10:10:36.655Z,10.70
2023-05-16T10:13:07.235Z,11.00
2023-05-16T10:15:36.977Z,9.67
2023-05-16T10:18:04.902Z,10.60
2023-05-16T10:20:32.136Z,10.57
2023-05-16T10:22:59.737Z,10.53
2023-05-16T10:25:34.828Z,10.20
2023-05-16T10:28:04.187Z,10.90
2023-05-16T10:30:33.987Z,10.80
2023-05-16T10:33:02.816Z,11.30
2023-05-16T10:35:31.435Z,10.20
2023-05-16T10:37:59.508Z,10.03
2023-05-16T10:40:28.849Z,10.57
2023-05-16T10:43:01.148Z,9.70
2023-05-16T10:45:28.929Z,9.70
2023-05-16T10:47:59.385Z,9.73
2023-05-16T10:50:45.892Z,9.73
2023-05-16T10:53:22.105Z,9.33
2023-05-16T10:56:01.506Z,9.00
2023-05-16T10:58:31.485Z,7.50
2023-05-16T11:01:30.773Z,8.70
2023-05-16T11:04:02.060Z,6.87
2023-05-16T11:06:32.650Z,8.10
2023-05-16T11:09:07.290Z,6.80
2023-05-16T11:12:09.752Z,7.00
2023-05-16T11:14:42.287Z,7.30
2023-05-16T11:17:20.829Z,7.10
2023-05-16T11:19:59.291Z,6.97
2023-05-16T11:22:34.386Z,6.00
2023-05-16T11:25:02.576Z,6.27
2023-05-16T11:27:36.202Z,4.80
2023-05-16T11:30:06.398Z,6.43
2023-05-16T11:32:39.516Z,6.87
2023-05-16T11:35:11.068Z,6.97
2023-05-16T11:37:40.280Z,5.30
2023-05-16T11:40:09.952Z,6.00
2023-05-16T11:42:43.218Z,4.73
2023-05-16T11:45:19.866Z,4.90
2023-05-16T11:47:48.817Z,4.60
2023-05-16T11:50:23.698Z,5.17
2023-05-16T11:52:57.501Z,5.27
2023-05-16T11:58:04.617Z,5.20
2023-05-16T12:00:31.734Z,4.40
2023-05-16T12:03:04.790Z,4.70
2023-05-16T12:05:34.053Z,3.93
2023-05-16T12:08:02.884Z,4.90
2023-05-16T12:10:34.829Z,4.70
2023-05-16T12:13:03.538Z,3.83
2023-05-16T12:15:31.314Z,4.20
2023-05-16T12:17:59.050Z,4.77
2023-05-16T12:20:26.636Z,4.83
2023-05-16T12:22:53.879Z,5.23
2023-05-16T12:25:41.909Z,4.13
2023-05-16T12:28:09.144Z,4.97
2023-05-16T12:30:36.270Z,4.07
2023-05-16T12:33:18.702Z,4.60
2023-05-16T12:35:48.066Z,4.67
2023-05-16T12:38:17.396Z,5.20
2023-05-16T12:40:45.614Z,4.40
2023-05-16T12:43:23.467Z,4.63
2023-05-16T12:45:56.591Z,4.60
2023-05-16T12:48:32.879Z,4.13
2023-05-16T12:51:16.390Z,4.90
2023-05-16T12:53:57.596Z,4.43
2023-05-16T12:56:42.198Z,4.17
2023-05-16T12:59:09.381Z,4.03
2023-05-16T13:01:37.032Z,4.07
2023-05-16T13:04:05.306Z,3.63
2023-05-16T13:06:48.921Z,4.10
2023-05-16T13:09:19.958Z,5.00
2023-05-16T13:11:47.208Z,4.30
2023-05-16T13:14:14.243Z,3.90
2023-05-16T13:16:41.419Z,4.07
2023-05-16T13:19:08.880Z,3.90
2023-05-16T13:21:36.072Z,4.90
2023-05-16T13:24:03.337Z,3.97
2023-05-16T13:26:30.641Z,3.93
2023-05-16T13:28:57.675Z,4.83
2023-05-16T13:31:24.777Z,3.57
2023-05-16T13:33:52.128Z,3.90
2023-05-16T13:36:19.224Z,3.53
2023-05-16T13:38:46.321Z,4.10
2023-05-16T13:41:14.257Z,3.90
2023-05-16T13:43:41.459Z,4.07
2023-05-16T13:46:08.690Z,3.60
2023-05-16T13:48:36.128Z,3.93
2023-05-16T13:51:03.265Z,3.50
2023-05-16T13:53:30.382Z,3.67
2023-05-16T13:55:57.410Z,3.30
2023-05-16T13:58:24.539Z,3.70
2023-05-16T14:00:51.915Z,3.90
2023-05-16T14:03:19.369Z,3.83
2023-05-16T14:05:46.785Z,3.93
2023-05-16T14:08:14.424Z,3.50
2023-05-16T14:10:41.538Z,3.73
2023-05-16T14:13:08.693Z,3.87
2023-05-16T14:15:35.941Z,3.13
2023-05-16T14:18:04.680Z,2.40
2023-05-16T14:20:31.978Z,2.87
2023-05-16T14:22:59.324Z,2.90
2023-05-16T14:25:26.932Z,3.00
2023-05-16T14:27:54.509Z,2.80
2023-05-16T14:30:21.805Z,3.07
2023-05-16T14:32:48.894Z,3.50
2023-05-16T14:35:16.439Z,2.60
2023-05-16T14:37:43.498Z,3.07
2023-05-16T14:40:10.981Z,3.20
2023-05-16T14:42:38.455Z,3.17
2023-05-16T14:45:06.760Z,3.30
2023-05-16T14:47:33.904Z,3.47
2023-05-16T14:50:01.372Z,3.60
2023-05-16T14:52:28.657Z,3.23
2023-05-16T14:54:55.744Z,3.60
2023-05-16T14:57:23.054Z,3.40
2023-05-16T14:59:50.601Z,3.50
2023-05-16T15:02:17.766Z,2.80
2023-05-16T15:04:45.052Z,3.20
2023-05-16T15:07:12.139Z,2.90
2023-05-16T15:09:39.216Z,4.57
2023-05-16T15:12:07.992Z,3.10
2023-05-16T15:14:35.563Z,3.27
2023-05-16T15:17:04.409Z,2.90
2023-05-16T15:19:32.362Z,3.07
2023-05-16T15:22:02.608Z,2.33
2023-05-16T15:24:30.028Z,3.00
2023-05-16T15:26:57.902Z,3.37
2023-05-16T15:29:26.406Z,2.63
2023-05-16T15:31:53.547Z,3.07
2023-05-16T15:34:20.692Z,2.93
2023-05-16T15:36:47.918Z,2.73
2023-05-16T15:39:15.145Z,3.60
2023-05-16T15:42:05.314Z,2.93
2023-05-16T15:44:30.550Z,2.77
2023-05-16T15:46:57.753Z,2.57
2023-05-16T15:49:24.994Z,2.43
2023-05-16T15:51:53.066Z,2.23
2023-05-16T15:54:20.807Z,2.27
2023-05-16T15:56:48.186Z,3.97
2023-05-16T15:59:15.492Z,2.93
2023-05-16T16:01:42.904Z,2.43
2023-05-16T16:04:10.133Z,2.60
2023-05-16T16:06:37.565Z,2.17
2023-05-16T16:09:04.906Z,2.10
2023-05-16T16:11:32.371Z,2.40
2023-05-16T16:13:59.951Z,3.00
2023-05-16T16:16:27.985Z,2.17
2023-05-16T16:18:55.243Z,2.20
2023-05-16T16:21:23.953Z,2.03
2023-05-16T16:23:51.327Z,2.57
2023-05-16T16:26:18.860Z,4.27
2023-05-16T16:28:46.127Z,1.83
2023-05-16T16:31:13.409Z,2.53
2023-05-16T16:33:42.361Z,1.87
2023-05-16T16:36:10.299Z,1.70
2023-05-16T16:38:37.416Z,1.80
2023-05-16T16:41:04.584Z,2.47
2023-05-16T16:43:31.673Z,1.70
2023-05-16T16:45:58.873Z,2.50
2023-05-16T16:48:26.440Z,2.47
2023-05-16T16:50:54.039Z,2.20
2023-05-16T16:53:21.150Z,2.20
2023-05-16T16:55:48.297Z,2.10
2023-05-16T16:58:15.401Z,2.40
2023-05-16T17:00:42.562Z,2.30
2023-05-16T17:03:11.046Z,2.30
2023-05-16T17:05:38.284Z,1.67
2023-05-16T17:08:05.976Z,2.43
2023-05-16T17:10:33.155Z,1.87
2023-05-16T17:13:07.118Z,2.00
2023-05-16T17:15:34.619Z,1.90
2023-05-16T17:18:01.802Z,1.87
2023-05-16T17:20:29.034Z,2.70
2023-05-16T17:22:56.499Z,2.93
2023-05-16T17:25:23.572Z,3.23
2023-05-16T17:27:50.713Z,2.90
2023-05-16T17:30:18.729Z,2.23
2023-05-16T17:32:46.251Z,2.03
2023-05-16T17:35:13.480Z,2.00
2023-05-16T17:37:41.447Z,2.63
2023-05-16T17:40:11.923Z,2.13
2023-05-16T17:42:39.031Z,2.67
2023-05-16T17:45:08.082Z,1.97
2023-05-16T17:47:35.235Z,2.30
2023-05-16T17:50:02.518Z,2.13
2023-05-16T17:52:29.737Z,2.27
2023-05-16T17:54:56.814Z,2.20
2023-05-16T17:57:23.903Z,2.10
2023-05-16T17:59:50.918Z,3.10
2023-05-16T18:02:18.675Z,2.43
2023-05-16T18:04:45.740Z,2.43
2023-05-16T18:07:12.794Z,2.50
2023-05-16T18:09:39.824Z,2.40
2023-05-16T18:12:07.299Z,2.40
2023-05-16T18:14:34.418Z,2.03
2023-05-16T18:17:01.539Z,1.90
2023-05-16T18:19:28.808Z,2.70
2023-05-16T18:21:56.775Z,2.47
2023-05-16T18:24:23.966Z,2.10
2023-05-16T18:26:51.214Z,3.57
2023-05-16T18:29:18.406Z,2.50
2023-05-16T18:31:45.544Z,2.53
2023-05-16T18:34:12.937Z,2.10
2023-05-16T18:36:40.099Z,2.03
2023-05-16T18:39:07.207Z,3.13
2023-05-16T18:41:34.661Z,3.20
2023-05-16T18:44:01.802Z,3.47
2023-05-16T18:46:29.019Z,3.37
2023-05-16T18:48:57.908Z,3.13
2023-05-16T18:51:25.376Z,2.83
2023-05-16T18:53:52.774Z,3.50
2023-05-16T18:56:20.144Z,3.13
2023-05-16T18:58:47.892Z,3.67
2023-05-16T19:01:15.044Z,3.13
2023-05-16T19:03:42.305Z,2.40
2023-05-16T19:06:09.549Z,2.70
2023-05-16T19:08:47.046Z,3.00
2023-05-16T19:11:14.702Z,3.20
2023-05-16T19:13:41.835Z,3.63
2023-05-16T19:16:09.347Z,3.07
2023-05-16T19:18:37.154Z,2.80
2023-05-16T19:21:04.545Z,2.73
2023-05-16T19:23:31.883Z,2.30
2023-05-16T19:25:59.581Z,2.13
2023-05-16T19:28:26.805Z,2.30
2023-05-16T19:30:54.027Z,2.03
2023-05-16T19:33:21.840Z,1.90
2023-05-16T19:35:51.535Z,2.00
2023-05-16T19:38:20.047Z,1.30
2023-05-16T19:40:47.267Z,1.77
2023-05-16T19:43:14.476Z,1.50
2023-05-16T19:45:41.650Z,1.30
2023-05-16T19:48:09.577Z,1.43
2023-05-16T19:50:37.180Z,1.60
2023-05-16T19:53:04.463Z,1.87
2023-05-16T19:55:32.103Z,3.50
2023-05-16T19:57:59.299Z,2.10
2023-05-16T20:00:26.418Z,2.20
2023-05-16T20:02:53.615Z,2.30
2023-05-16T20:05:23.263Z,1.57
2023-05-16T20:07:51.003Z,2.30
2023-05-16T20:10:19.794Z,1.53
2023-05-16T20:12:48.426Z,1.50
2023-05-16T20:15:16.224Z,1.63
2023-05-16T20:17:43.406Z,2.33
2023-05-16T20:20:11.063Z,1.80
2023-05-16T20:22:41.966Z,1.43
2023-05-16T20:25:11.421Z,1.30
2023-05-16T20:27:39.233Z,1.70
2023-05-16T20:30:07.810Z,1.20
2023-05-16T20:32:35.661Z,1.10
2023-05-16T20:35:04.989Z,1.40
2023-05-16T20:37:32.142Z,1.30
2023-05-16T20:39:59.369Z,1.10
2023-05-16T20:42:26.642Z,1.10
2023-05-16T20:44:53.932Z,0.80
2023-05-16T20:47:21.583Z,1.30
2023-05-16T20:49:48.852Z,2.00
2023-05-16T20:52:16.069Z,1.23
2023-05-16T20:54:43.102Z,1.50
2023-05-16T20:57:12.437Z,1.40
2023-05-16T20:59:39.660Z,1.53
2023-05-16T21:02:10.130Z,2.23
2023-05-16T21:04:38.268Z,1.70
2023-05-16T21:07:08.160Z,1.30
2023-05-16T21:09:37.979Z,1.20
2023-05-16T21:12:05.993Z,0.90
2023-05-16T21:14:33.086Z,1.00
2023-05-16T21:17:03.367Z,1.03
2023-05-16T21:19:34.642Z,1.10
2023-05-16T21:22:04.089Z,0.90
2023-05-16T21:24:35.369Z,0.90
2023-05-16T21:27:04.072Z,1.67
2023-05-16T21:29:31.435Z,1.07
2023-05-16T21:31:58.854Z,1.00
2023-05-16T21:34:26.132Z,0.87
2023-05-16T21:36:53.950Z,1.00
2023-05-16T21:39:21.029Z,2.47
2023-05-16T21:41:48.141Z,0.77
2023-05-16T21:44:17.279Z,1.17
2023-05-16T21:46:45.113Z,0.80
2023-05-16T21:49:12.888Z,0.90
2023-05-16T21:51:40.080Z,0.80
2023-05-16T21:54:07.101Z,1.30
2023-05-16T21:56:34.178Z,1.13
2023-05-16T21:59:01.390Z,0.73
2023-05-16T22:01:29.461Z,1.27
2023-05-16T22:03:57.436Z,1.27
2023-05-16T22:06:25.476Z,1.20
2023-05-16T22:08:53.306Z,1.60
2023-05-16T22:11:21.870Z,1.10
2023-05-16T22:13:50.640Z,0.90
2023-05-16T22:16:18.430Z,1.30
2023-05-16T22:18:45.769Z,1.07
2023-05-16T22:21:13.010Z,0.97
2023-05-16T22:23:40.058Z,1.20
2023-05-16T22:26:07.309Z,1.03
2023-05-16T22:28:34.394Z,0.90
2023-05-16T22:31:01.514Z,0.87
2023-05-16T22:33:28.841Z,1.17
2023-05-16T22:35:56.295Z,1.33
2023-05-16T22:38:23.403Z,1.10
2023-05-16T22:40:50.517Z,1.00
2023-05-16T22:43:17.664Z,0.80
2023-05-16T22:45:44.730Z,1.40
2023-05-16T22:48:12.018Z,1.13
2023-05-16T22:50:39.258Z,1.00
2023-05-16T22:53:06.375Z,1.30
2023-05-16T22:55:34.934Z,0.80
2023-05-16T22:58:02.085Z,0.80
2023-05-16T23:00:29.239Z,1.00
2023-05-16T23:02:56.558Z,0.93
2023-05-16T23:05:23.885Z,1.03
2023-05-16T23:07:51.099Z,1.30
2023-05-16T23:10:18.205Z,0.83
2023-05-16T23:12:45.296Z,0.90
2023-05-16T23:15:13.424Z,1.07
2023-05-16T23:17:40.916Z,1.03
2023-05-16T23:20:08.757Z,1.20
2023-05-16T23:22:35.860Z,0.93
2023-05-16T23:25:03.171Z,1.20
2023-05-16T23:27:30.344Z,1.37
2023-05-16T23:29:58.112Z,1.00
2023-05-16T23:32:25.237Z,0.97
2023-05-16T23:34:52.620Z,1.17
2023-05-16T23:37:19.738Z,1.10
2023-05-16T23:39:46.803Z,1.13
2023-05-16T23:42:13.948Z,0.87
2023-05-16T23:44:41.937Z,0.90
2023-05-16T23:47:09.476Z,0.90
2023-05-16T23:49:36.583Z,0.90
2023-05-16T23:52:05.951Z,1.10
2023-05-16T23:54:34.264Z,0.80
2023-05-16T23:57:01.531Z,0.80
2023-05-16T23:59:28.656Z,0.90
